createdAt,value
2018-08-03T00:01:26.726Z,84.20
2018-08-03T00:03:57.540Z,84.25
2018-08-03T00:06:28.128Z,83.93
2018-08-03T00:08:58.593Z,83.98
2018-08-03T00:11:28.973Z,83.93
2018-08-03T00:13:59.581Z,83.79
2018-08-03T00:16:30.108Z,83.79
2018-08-03T00:19:00.589Z,84.21
2018-08-03T00:21:31.301Z,84.04
2018-08-03T00:24:01.690Z,84.58
2018-08-03T00:26:32.181Z,84.92
2018-08-03T00:29:02.679Z,84.01
2018-08-03T00:31:33.252Z,84.35
2018-08-03T00:34:03.852Z,84.50
2018-08-03T00:36:34.495Z,84.46
2018-08-03T00:39:07.011Z,83.90
2018-08-03T00:41:37.817Z,84.10
2018-08-03T00:44:08.304Z,84.34
2018-08-03T00:46:39.092Z,84.53
2018-08-03T00:49:09.730Z,84.28
2018-08-03T00:51:40.190Z,84.33
2018-08-03T00:54:10.685Z,84.49
2018-08-03T00:56:41.031Z,84.12
2018-08-03T00:59:11.513Z,83.54
2018-08-03T01:01:42.063Z,82.68
2018-08-03T01:04:12.561Z,82.61
2018-08-03T01:06:42.956Z,82.82
2018-08-03T01:09:13.994Z,82.91
2018-08-03T01:11:44.598Z,83.73
2018-08-03T01:14:15.255Z,83.67
2018-08-03T01:16:45.579Z,83.28
2018-08-03T01:19:16.170Z,83.61
2018-08-03T01:21:46.911Z,83.61
2018-08-03T01:24:17.244Z,83.84
2018-08-03T01:26:47.678Z,83.02
2018-08-03T01:29:18.462Z,83.29
2018-08-03T01:31:48.956Z,83.53
2018-08-03T01:34:19.440Z,84.03
2018-08-03T01:36:49.838Z,83.50
2018-08-03T01:39:20.332Z,83.83
2018-08-03T01:41:50.909Z,83.37
2018-08-03T01:44:21.537Z,83.62
2018-08-03T01:46:52.134Z,83.59
2018-08-03T01:49:22.698Z,84.00
2018-08-03T01:51:53.223Z,83.61
2018-08-03T01:54:23.944Z,83.31
2018-08-03T01:56:54.387Z,83.16
2018-08-03T01:59:25.288Z,83.73
2018-08-03T02:01:56.414Z,83.27
2018-08-03T02:04:27.095Z,83.34
2018-08-03T02:06:57.893Z,83.17
2018-08-03T02:09:28.340Z,83.78
2018-08-03T02:11:58.948Z,84.16
2018-08-03T02:14:29.426Z,84.55
2018-08-03T02:17:00.015Z,84.70
2018-08-03T02:19:30.428Z,84.97
2018-08-03T02:22:00.825Z,85.02
2018-08-03T02:24:31.337Z,85.56
2018-08-03T02:27:01.782Z,85.30
2018-08-03T02:29:32.240Z,85.40
2018-08-03T02:32:02.555Z,85.90
2018-08-03T02:34:33.008Z,85.93
2018-08-03T02:37:03.649Z,86.20
2018-08-03T02:39:34.047Z,86.85
2018-08-03T02:42:04.434Z,86.84
2018-08-03T02:44:34.999Z,87.03
2018-08-03T02:47:05.549Z,86.95
2018-08-03T02:49:36.146Z,86.63
2018-08-03T02:52:06.435Z,86.59
2018-08-03T02:54:36.845Z,86.15
2018-08-03T02:57:07.619Z,86.23
2018-08-03T02:59:39.105Z,85.05
2018-08-03T03:02:09.485Z,85.28
2018-08-03T03:04:40.202Z,85.35
2018-08-03T03:07:10.670Z,85.51
2018-08-03T03:09:41.243Z,85.35
2018-08-03T03:12:11.726Z,85.00
2018-08-03T03:14:42.229Z,85.15
2018-08-03T03:17:12.854Z,85.41
2018-08-03T03:19:43.435Z,86.02
2018-08-03T03:22:14.926Z,86.12
2018-08-03T03:24:45.284Z,86.04
2018-08-03T03:27:15.590Z,85.85
2018-08-03T03:29:46.127Z,85.70
2018-08-03T03:32:16.719Z,85.54
2018-08-03T03:34:47.084Z,86.14
2018-08-03T03:37:17.589Z,85.94
2018-08-03T03:39:48.924Z,86.71
2018-08-03T03:42:19.319Z,86.43
2018-08-03T03:44:49.822Z,86.99
2018-08-03T03:47:20.304Z,86.93
2018-08-03T03:49:50.922Z,86.50
2018-08-03T03:52:21.557Z,86.85
2018-08-03T03:54:51.926Z,85.53
2018-08-03T03:57:23.118Z,84.64
2018-08-03T03:59:53.748Z,83.83
2018-08-03T04:02:24.267Z,83.23
2018-08-03T04:04:54.839Z,81.74
2018-08-03T04:07:25.394Z,80.69
2018-08-03T04:09:56.168Z,78.64
2018-08-03T04:12:26.536Z,77.19
2018-08-03T04:14:56.935Z,75.62
2018-08-03T04:17:27.288Z,73.61
2018-08-03T04:19:57.637Z,72.43
2018-08-03T04:22:28.147Z,72.43
2018-08-03T04:24:58.534Z,71.02
2018-08-03T04:27:29.148Z,69.43
2018-08-03T04:29:59.588Z,68.38
2018-08-03T04:32:29.936Z,67.61
2018-08-03T04:35:00.770Z,66.62
2018-08-03T04:37:32.075Z,64.17
2018-08-03T04:40:02.865Z,66.46
2018-08-03T04:42:33.242Z,67.85
2018-08-03T04:45:03.873Z,68.00
2018-08-03T04:47:34.237Z,70.97
2018-08-03T04:50:05.046Z,70.26
2018-08-03T04:52:35.505Z,70.49
2018-08-03T04:55:05.800Z,73.17
2018-08-03T04:57:36.389Z,73.56
2018-08-03T05:00:07.047Z,74.78
2018-08-03T05:02:37.421Z,74.92
2018-08-03T05:05:07.695Z,74.41
2018-08-03T05:07:38.831Z,74.68
2018-08-03T05:10:09.112Z,73.41
2018-08-03T05:12:39.525Z,72.88
2018-08-03T05:15:10.118Z,73.02
2018-08-03T05:17:41.519Z,72.39
2018-08-03T05:20:11.843Z,71.81
2018-08-03T05:22:42.326Z,70.51
2018-08-03T05:25:12.652Z,71.76
2018-08-03T05:27:43.019Z,71.69
2018-08-03T05:30:13.727Z,71.53
2018-08-03T05:32:44.370Z,71.04
2018-08-03T05:35:14.882Z,69.88
2018-08-03T05:37:46.391Z,68.06
2018-08-03T05:40:16.936Z,66.16
2018-08-03T05:42:47.482Z,65.58
2018-08-03T05:45:17.816Z,65.11
2018-08-03T05:47:48.360Z,62.66
2018-08-03T05:50:18.784Z,59.67
2018-08-03T05:52:49.198Z,59.39
2018-08-03T05:55:19.585Z,55.42
2018-08-03T05:57:50.144Z,55.56
2018-08-03T06:00:20.649Z,52.21
2018-08-03T06:02:50.996Z,49.96
2018-08-03T06:05:21.600Z,48.87
2018-08-03T06:07:52.168Z,46.94
2018-08-03T06:10:22.677Z,46.20
2018-08-03T06:12:53.128Z,44.26
2018-08-03T06:15:23.603Z,41.42
2018-08-03T06:17:54.181Z,40.50
2018-08-03T06:20:24.548Z,40.89
2018-08-03T06:22:55.350Z,42.10
2018-08-03T06:25:25.821Z,42.72
2018-08-03T06:27:56.155Z,41.47
2018-08-03T06:30:26.715Z,41.74
2018-08-03T06:32:57.319Z,41.81
2018-08-03T06:35:27.712Z,40.99
2018-08-03T06:37:58.294Z,39.72
2018-08-03T06:40:28.960Z,37.86
2018-08-03T06:42:59.398Z,39.29
2018-08-03T06:45:29.784Z,40.08
2018-08-03T06:48:00.612Z,42.13
2018-08-03T06:50:31.245Z,43.39
2018-08-03T06:53:01.761Z,44.61
2018-08-03T06:55:32.471Z,45.21
2018-08-03T06:58:03.001Z,46.56
2018-08-03T07:00:33.499Z,46.62
2018-08-03T07:03:03.818Z,44.79
2018-08-03T07:05:34.384Z,45.14
2018-08-03T07:08:05.096Z,43.28
2018-08-03T07:10:35.434Z,41.71
2018-08-03T07:13:05.746Z,37.43
2018-08-03T07:15:36.249Z,37.03
2018-08-03T07:18:06.819Z,34.98
2018-08-03T07:20:37.520Z,35.69
2018-08-03T07:23:08.113Z,33.63
2018-08-03T07:25:38.620Z,34.30
2018-08-03T07:28:09.000Z,34.23
2018-08-03T07:30:39.499Z,35.71
2018-08-03T13:56:08.920Z,63.56
2018-08-03T13:58:39.896Z,61.75
2018-08-03T14:01:21.438Z,63.90
2018-08-03T14:03:52.082Z,62.77
2018-08-03T14:06:22.710Z,64.35
2018-08-03T14:08:53.415Z,61.45
2018-08-03T14:11:24.300Z,60.67
2018-08-03T14:13:54.925Z,60.15
2018-08-03T14:16:25.571Z,58.68
2018-08-03T14:18:56.059Z,59.28
2018-08-03T14:21:26.676Z,58.80
2018-08-03T14:23:56.998Z,58.97
2018-08-03T14:26:27.493Z,57.72
2018-08-03T14:28:58.240Z,57.89
2018-08-03T14:31:29.006Z,57.16
2018-08-03T14:33:59.679Z,58.82
2018-08-03T14:36:30.464Z,59.86
2018-08-03T14:39:01.085Z,60.64
2018-08-03T14:41:31.761Z,61.39
2018-08-03T14:44:02.279Z,61.32
2018-08-03T14:46:32.759Z,60.13
2018-08-03T14:49:03.408Z,59.39
2018-08-03T14:51:34.276Z,60.34
2018-08-03T14:54:04.881Z,58.41
2018-08-03T14:56:35.827Z,57.79
2018-08-03T14:59:06.899Z,59.09
2018-08-03T15:01:38.093Z,59.20
2018-08-03T15:04:09.010Z,56.91
2018-08-03T15:06:39.496Z,56.50
2018-08-03T15:09:11.639Z,56.51
2018-08-03T15:11:42.505Z,56.01
2018-08-03T15:14:13.193Z,55.08
2018-08-03T15:16:43.662Z,53.37
2018-08-03T15:19:14.099Z,52.75
2018-08-03T15:21:44.597Z,53.64
2018-08-03T15:24:15.173Z,53.55
2018-08-03T15:26:45.628Z,53.32
2018-08-03T15:29:16.127Z,52.79
2018-08-03T15:31:46.791Z,51.77
2018-08-03T15:34:17.635Z,51.71
2018-08-03T15:36:48.413Z,51.98
2018-08-03T15:39:18.907Z,52.39
2018-08-03T15:41:49.600Z,55.15
2018-08-03T15:44:20.141Z,55.25
2018-08-03T15:46:50.886Z,54.52
2018-08-03T15:49:21.898Z,53.46
2018-08-03T15:51:52.562Z,51.70
2018-08-03T15:54:23.315Z,51.95
2018-08-03T15:56:54.118Z,51.54
2018-08-03T15:59:24.603Z,51.11
2018-08-03T16:01:55.375Z,51.09
2018-08-03T16:04:25.975Z,51.37
2018-08-03T16:06:56.580Z,50.78
2018-08-03T16:09:27.073Z,50.68
2018-08-03T16:11:57.557Z,51.31
2018-08-03T16:14:28.228Z,52.82
2018-08-03T16:16:58.853Z,53.15
2018-08-03T16:19:30.003Z,54.47
2018-08-03T16:22:00.496Z,53.81
2018-08-03T16:24:31.006Z,53.89
2018-08-03T16:27:01.711Z,53.91
2018-08-03T16:29:32.290Z,54.73
2018-08-03T16:32:03.208Z,54.95
2018-08-03T16:34:33.858Z,55.88
2018-08-03T16:37:04.407Z,56.21
2018-08-03T16:39:34.985Z,55.93
2018-08-03T16:42:05.776Z,57.26
2018-08-03T16:44:36.721Z,56.29
2018-08-03T16:47:07.328Z,56.43
2018-08-03T16:49:37.895Z,56.98
2018-08-03T16:52:08.745Z,55.50
2018-08-03T16:54:39.460Z,54.63
2018-08-03T16:57:10.280Z,55.03
2018-08-03T16:59:40.796Z,54.35
2018-08-03T17:02:11.010Z,54.48
2018-08-03T17:04:41.478Z,54.60
2018-08-03T17:07:12.572Z,54.74
2018-08-03T17:09:43.083Z,55.48
2018-08-03T17:12:13.478Z,55.88
2018-08-03T17:14:44.272Z,57.07
2018-08-03T17:17:14.839Z,56.35
2018-08-03T17:19:45.578Z,57.25
2018-08-03T17:22:16.189Z,57.93
2018-08-03T17:24:46.870Z,58.63
2018-08-03T17:27:17.432Z,60.12
2018-08-03T17:29:48.073Z,61.20
2018-08-03T17:32:18.966Z,62.57
2018-08-03T17:34:49.388Z,62.64
2018-08-03T17:37:19.906Z,63.66
2018-08-03T17:39:50.521Z,64.82
2018-08-03T17:42:20.965Z,65.47
2018-08-03T17:44:51.443Z,66.08
2018-08-03T17:47:21.832Z,67.16
2018-08-03T17:49:52.426Z,66.39
2018-08-03T17:52:23.209Z,67.05
2018-08-03T17:54:54.012Z,67.64
2018-08-03T17:57:24.593Z,67.42
2018-08-03T17:59:55.307Z,67.64
2018-08-03T18:02:25.874Z,67.21
2018-08-03T18:05:06.582Z,67.95
2018-08-03T18:07:36.997Z,66.90
2018-08-03T18:10:08.312Z,68.45
2018-08-03T18:12:38.897Z,68.46
2018-08-03T18:15:09.839Z,68.97
2018-08-03T18:17:40.486Z,68.34
2018-08-03T18:20:10.809Z,68.65
2018-08-03T18:22:41.184Z,69.16
2018-08-03T18:25:11.818Z,68.65
2018-08-03T18:27:42.476Z,68.81
2018-08-03T18:30:13.088Z,70.26
2018-08-03T18:36:17.392Z,69.28
2018-08-03T18:38:47.718Z,67.34
2018-08-03T18:41:18.273Z,67.05
2018-08-03T18:43:49.075Z,67.35
2018-08-03T18:46:20.141Z,65.88
2018-08-03T18:48:50.935Z,66.51
2018-08-03T18:51:21.644Z,66.01
2018-08-03T18:53:52.311Z,66.44
2018-08-03T18:56:22.932Z,69.83
2018-08-03T18:58:53.660Z,70.56
2018-08-03T19:01:24.275Z,70.42
2018-08-03T19:03:54.674Z,69.73
2018-08-03T19:06:25.200Z,69.25
2018-08-03T19:08:56.095Z,69.04
2018-08-03T19:11:27.057Z,69.62
2018-08-03T19:13:58.032Z,69.12
2018-08-03T19:16:28.665Z,69.02
2018-08-03T19:18:59.335Z,70.90
2018-08-03T19:21:30.465Z,73.27
2018-08-03T19:24:00.842Z,73.21
2018-08-03T19:26:31.521Z,73.70
2018-08-03T19:29:02.302Z,73.00
2018-08-03T19:31:32.922Z,71.50
2018-08-03T19:34:03.633Z,71.10
2018-08-03T19:36:34.032Z,70.59
2018-08-03T19:39:07.929Z,72.89
2018-08-03T19:41:38.773Z,73.92
2018-08-03T19:44:09.555Z,74.18
2018-08-03T19:46:40.061Z,74.26
2018-08-03T19:49:10.594Z,74.82
2018-08-03T19:51:41.041Z,75.33
2018-08-03T19:54:11.806Z,75.59
2018-08-03T19:56:42.393Z,73.91
2018-08-03T19:59:13.414Z,75.82
2018-08-03T20:01:44.811Z,75.82
2018-08-03T20:04:15.259Z,74.76
2018-08-03T20:06:45.846Z,76.49
2018-08-03T20:09:16.395Z,76.76
2018-08-03T20:11:47.077Z,77.27
2018-08-03T20:14:17.675Z,76.68
2018-08-03T20:16:48.016Z,77.35
2018-08-03T20:19:19.460Z,78.67
2018-08-03T20:21:49.987Z,78.71
2018-08-03T20:24:20.591Z,78.36
2018-08-03T20:26:51.216Z,79.02
2018-08-03T20:29:21.559Z,79.04
2018-08-03T20:31:52.009Z,78.84
2018-08-03T20:34:22.407Z,77.43
2018-08-03T20:36:53.082Z,78.15
2018-08-03T20:39:23.608Z,78.55
2018-08-03T20:41:55.123Z,78.84
2018-08-03T20:44:25.554Z,78.22
2018-08-03T20:46:56.009Z,78.83
2018-08-03T20:49:26.868Z,78.71
2018-08-03T20:51:57.519Z,78.30
2018-08-03T20:54:28.264Z,77.94
2018-08-03T20:56:58.923Z,77.12
2018-08-03T20:59:29.508Z,77.93
2018-08-03T21:01:59.886Z,78.50
2018-08-03T21:04:30.640Z,79.81
2018-08-03T21:07:01.008Z,79.56
2018-08-03T21:09:31.640Z,79.44
2018-08-03T21:12:02.994Z,80.78
2018-08-03T21:14:33.378Z,80.48
2018-08-03T21:17:04.348Z,80.30
2018-08-03T21:19:34.899Z,79.86
2018-08-03T21:22:05.800Z,80.02
2018-08-03T21:24:36.337Z,80.65
2018-08-03T21:27:07.272Z,80.41
2018-08-03T21:29:37.608Z,80.69
2018-08-03T21:32:08.085Z,81.56
2018-08-03T21:34:38.548Z,81.74
2018-08-03T21:37:09.250Z,82.60
2018-08-03T21:39:39.939Z,83.41
2018-08-03T21:42:10.597Z,83.99
2018-08-03T21:44:41.262Z,84.12
2018-08-03T21:47:11.902Z,83.77
2018-08-03T21:49:42.758Z,82.74
2018-08-03T21:52:13.140Z,83.10
2018-08-03T21:54:43.685Z,83.64
2018-08-03T21:57:14.234Z,82.73
2018-08-03T21:59:44.701Z,83.14
2018-08-03T22:02:14.994Z,80.79
2018-08-03T22:04:45.319Z,80.80
2018-08-03T22:07:15.712Z,81.29
2018-08-03T22:09:46.100Z,82.25
2018-08-03T22:12:16.591Z,82.95
2018-08-03T22:14:47.170Z,83.83
2018-08-03T22:17:17.760Z,84.28
2018-08-03T22:19:48.292Z,84.55
2018-08-03T22:22:18.816Z,85.53
2018-08-03T22:24:49.154Z,85.12
2018-08-03T22:27:20.502Z,85.18
2018-08-03T22:29:50.989Z,85.70
2018-08-03T22:32:21.772Z,85.79
2018-08-03T22:34:52.099Z,86.59
2018-08-03T22:37:22.890Z,86.09
2018-08-03T22:39:53.430Z,85.88
2018-08-03T22:42:24.039Z,86.14
2018-08-03T22:44:55.078Z,86.67
2018-08-03T22:47:25.689Z,87.43
2018-08-03T22:49:56.058Z,86.73
2018-08-03T22:52:26.650Z,86.83
2018-08-03T22:54:57.159Z,86.71
2018-08-03T22:57:27.630Z,87.00
2018-08-03T22:59:58.136Z,87.07
2018-08-03T23:02:28.718Z,87.00
2018-08-03T23:04:59.155Z,87.38
2018-08-03T23:07:29.519Z,87.57
2018-08-03T23:10:00.142Z,86.30
2018-08-03T23:12:30.708Z,86.43
2018-08-03T23:15:01.051Z,86.30
2018-08-03T23:17:31.535Z,86.03
2018-08-03T23:20:02.938Z,86.36
2018-08-03T23:22:33.393Z,86.89
2018-08-03T23:25:06.071Z,87.38
2018-08-03T23:27:36.710Z,87.60
2018-08-03T23:30:08.742Z,88.03
2018-08-03T23:32:39.452Z,88.43
2018-08-03T23:35:10.150Z,88.18
2018-08-03T23:37:41.332Z,88.63
2018-08-03T23:40:11.770Z,87.97
2018-08-03T23:42:42.448Z,87.40
2018-08-03T23:45:12.808Z,87.74
2018-08-03T23:47:44.791Z,87.34
2018-08-03T23:50:18.916Z,87.60
2018-08-03T23:52:50.250Z,88.95
2018-08-03T23:55:21.107Z,88.46
2018-08-03T23:57:51.569Z,88.14
